createdAt,value
2022-10-09T00:02:48.458Z,3.99
2022-10-09T00:07:59.149Z,3.93
2022-10-09T00:13:16.918Z,3.93
2022-10-09T00:18:35.163Z,3.91
2022-10-09T00:23:51.797Z,3.94
2022-10-09T00:29:09.334Z,3.94
2022-10-09T00:34:25.564Z,3.93
2022-10-09T00:39:42.832Z,3.93
2022-10-09T00:44:59.224Z,3.92
2022-10-09T00:50:16.598Z,3.92
2022-10-09T00:54:43.967Z,3.9
2022-10-09T00:59:27.532Z,3.9
2022-10-09T01:04:36.659Z,3.91
2022-10-09T01:09:46.490Z,3.91
2022-10-09T01:14:54.895Z,3.97
2022-10-09T01:20:03.371Z,3.97
2022-10-09T01:25:13.171Z,3.97
2022-10-09T01:30:22.894Z,3.97
2022-10-09T01:35:31.381Z,3.88
2022-10-09T01:40:40.491Z,3.88
2022-10-09T01:45:49.616Z,3.9
2022-10-09T01:50:58.734Z,3.9
2022-10-09T01:56:09.777Z,3.92
2022-10-09T02:01:19.754Z,3.92
2022-10-09T02:06:28.015Z,3.9
2022-10-09T02:11:42.196Z,3.9
2022-10-09T02:16:57.766Z,3.93
2022-10-09T02:22:13.897Z,3.93
2022-10-09T02:27:29.411Z,3.91
2022-10-09T02:32:44.367Z,3.91
2022-10-09T02:38:00.456Z,3.92
2022-10-09T02:43:16.632Z,3.92
2022-10-09T02:48:30.856Z,3.87
2022-10-09T02:53:46.369Z,3.87
2022-10-09T02:59:01.897Z,3.91
2022-10-09T03:04:18.076Z,3.91
2022-10-09T03:08:42.319Z,3.89
2022-10-09T03:13:25.937Z,3.89
2022-10-09T03:18:34.425Z,3.88
2022-10-09T03:23:42.967Z,3.88
2022-10-09T03:28:50.996Z,3.91
2022-10-09T03:33:59.854Z,3.87
2022-10-09T03:39:13.393Z,3.87
2022-10-09T03:44:30.837Z,3.87
2022-10-09T03:49:47.159Z,3.87
2022-10-09T03:55:04.615Z,3.87
2022-10-09T04:00:22.040Z,3.87
2022-10-09T04:05:38.035Z,3.89
2022-10-09T04:10:54.363Z,3.89
2022-10-09T04:16:11.951Z,3.86
2022-10-09T04:20:23.852Z,3.86
2022-10-09T04:25:33.614Z,3.86
2022-10-09T04:30:43.375Z,3.86
2022-10-09T04:35:52.493Z,3.87
2022-10-09T04:41:02.261Z,3.87
2022-10-09T04:46:11.855Z,3.89
2022-10-09T04:51:20.501Z,3.89
2022-10-09T04:56:29.629Z,3.85
2022-10-09T05:01:39.120Z,3.85
2022-10-09T05:06:54.374Z,3.9
2022-10-09T05:12:09.900Z,3.9
2022-10-09T05:22:42.248Z,3.87
2022-10-09T05:27:58.379Z,3.87
2022-10-09T05:38:29.449Z,3.88
2022-10-09T05:43:44.935Z,3.88
2022-10-09T05:49:01.129Z,3.92
2022-10-09T05:54:17.302Z,3.92
2022-10-09T05:59:32.778Z,3.84
2022-10-09T06:03:57.723Z,3.84
2022-10-09T06:08:39.869Z,3.89
2022-10-09T06:13:50.195Z,3.89
2022-10-09T06:19:00.009Z,3.88
2022-10-09T06:24:09.944Z,3.88
2022-10-09T06:29:25.316Z,3.9
2022-10-09T06:34:41.450Z,3.9
2022-10-09T06:39:55.653Z,3.9
2022-10-09T06:45:11.807Z,3.87
2022-10-09T06:50:26.077Z,3.87
2022-10-09T06:55:41.572Z,3.89
2022-10-09T07:00:57.772Z,3.89
2022-10-09T07:06:13.268Z,3.91
2022-10-09T07:11:28.169Z,3.91
2022-10-09T07:16:45.186Z,3.87
2022-10-09T07:22:01.732Z,3.87
2022-10-09T07:27:17.899Z,3.85
2022-10-09T07:31:43.740Z,3.85
2022-10-09T07:36:23.973Z,3.87
2022-10-09T07:41:33.611Z,3.87
2022-10-09T07:46:43.193Z,3.86
2022-10-09T07:51:52.495Z,3.86
2022-10-09T07:57:00.974Z,3.85
2022-10-09T08:02:11.077Z,3.85
2022-10-09T08:07:19.211Z,3.83
2022-10-09T08:12:27.686Z,3.83
2022-10-09T08:17:36.179Z,3.84
2022-10-09T08:22:47.341Z,3.84
2022-10-09T08:27:55.692Z,3.87
2022-10-09T08:33:04.174Z,3.87
2022-10-09T08:38:48.726Z,3.84
2022-10-09T08:43:22.462Z,3.84
2022-10-09T08:48:32.183Z,3.85
2022-10-09T08:53:45.071Z,3.85
2022-10-09T08:59:04.085Z,3.89
2022-10-09T09:04:20.618Z,3.89
2022-10-09T09:09:37.394Z,3.89
2022-10-09T09:14:54.356Z,3.89
2022-10-09T09:20:10.358Z,3.87
2022-10-09T09:25:27.802Z,3.87
2022-10-09T09:30:43.423Z,3.93
2022-10-09T09:36:00.282Z,3.93
2022-10-09T09:41:07.951Z,3.92
2022-10-09T09:45:43.878Z,3.9
2022-10-09T09:51:29.277Z,3.9
2022-10-09T09:55:35.198Z,3.93
2022-10-09T10:00:43.948Z,3.93
2022-10-09T10:05:53.455Z,3.92
2022-10-09T10:11:06.423Z,3.92
2022-10-09T10:16:16.516Z,3.94
2022-10-09T10:21:29.158Z,3.94
2022-10-09T10:26:36.996Z,3.94
2022-10-09T10:31:49.310Z,3.94
2022-10-09T10:37:03.792Z,3.96
2022-10-09T10:42:06.889Z,3.96
2022-10-09T10:47:16.656Z,3.93
2022-10-09T10:52:25.133Z,3.93
2022-10-09T10:57:37.458Z,3.96
2022-10-09T11:02:45.559Z,3.96
2022-10-09T11:08:00.516Z,3.96
2022-10-09T11:13:04.980Z,3.96
2022-10-09T11:18:28.013Z,3.97
2022-10-09T11:23:40.351Z,3.97
2022-10-09T11:28:52.901Z,3.99
2022-10-09T11:34:05.938Z,3.99
2022-10-09T11:39:22.679Z,3.97
2022-10-09T11:44:38.680Z,3.97
2022-10-09T11:49:55.004Z,4.02
2022-10-09T11:55:13.848Z,4.02
2022-10-09T12:00:29.877Z,4
2022-10-09T12:11:04.756Z,4
2022-10-09T12:21:37.553Z,4.01
2022-10-09T12:26:53.401Z,4.03
2022-10-09T12:37:26.042Z,4.01
2022-10-09T12:42:42.202Z,4.01
2022-10-09T12:47:58.431Z,4.01
2022-10-09T12:53:17.082Z,4.01
2022-10-09T12:58:34.040Z,3.99
2022-10-09T13:03:49.393Z,3.99
2022-10-09T13:09:06.358Z,4
2022-10-09T13:14:23.802Z,4
2022-10-09T13:24:56.120Z,4.03
2022-10-09T13:30:14.036Z,4.03
2022-10-09T13:35:32.281Z,4.03
2022-10-09T13:40:49.179Z,4.04
2022-10-09T13:46:05.331Z,4.04
2022-10-09T13:51:24.705Z,4.04
2022-10-09T13:56:41.397Z,4.04
2022-10-09T13:59:27.449Z,4.05
2022-10-09T14:04:08.502Z,4.05
2022-10-09T14:09:18.262Z,4.06
2022-10-09T14:14:27.376Z,4.06
2022-10-09T14:19:36.512Z,4.08
2022-10-09T14:24:46.252Z,4.08
2022-10-09T14:29:57.536Z,4.08
2022-10-09T14:35:04.494Z,4.08
2022-10-09T14:40:12.973Z,4.06
2022-10-09T14:45:22.756Z,4.06
2022-10-09T14:50:31.875Z,4.06
2022-10-09T14:55:41.615Z,4.06
2022-10-09T15:00:50.735Z,4.06
2022-10-09T15:06:01.132Z,4.06
2022-10-09T15:11:09.644Z,4.06
2022-10-09T15:16:18.077Z,4.06
2022-10-09T15:21:26.606Z,4.06
2022-10-09T15:26:36.098Z,4.03
2022-10-09T15:31:44.167Z,4.03
2022-10-09T15:36:53.993Z,4.05
2022-10-09T15:42:02.461Z,4.05
2022-10-09T15:47:51.439Z,4.04
2022-10-09T15:52:21.552Z,4.04
2022-10-09T15:57:37.128Z,4.05
2022-10-09T16:02:40.809Z,4.05
2022-10-09T16:08:07.342Z,4.03
2022-10-09T16:13:24.149Z,4.03
2022-10-09T16:18:40.479Z,4
2022-10-09T16:23:16.767Z,4
2022-10-09T16:34:25.578Z,4.03
2022-10-09T16:39:40.465Z,4.01
2022-10-09T16:50:12.133Z,4
2022-10-09T17:00:45.131Z,4
2022-10-09T17:11:16.319Z,4
2022-10-09T17:16:31.049Z,4
2022-10-09T17:21:47.182Z,4.04
2022-10-09T17:27:02.679Z,4.04
2022-10-09T17:31:28.245Z,4.02
2022-10-09T17:35:53.098Z,4.02
2022-10-09T17:41:12.290Z,4
2022-10-09T17:46:24.132Z,4
2022-10-09T17:51:40.297Z,4.07
2022-10-09T17:56:55.209Z,4.07
2022-10-09T18:02:11.376Z,4.04
2022-10-09T18:07:25.613Z,4.04
2022-10-09T18:12:41.097Z,4.03
2022-10-09T18:17:06.620Z,4.03
2022-10-09T18:21:45.132Z,4.03
2022-10-09T18:26:55.541Z,4.03
2022-10-09T18:32:04.659Z,4.06
2022-10-09T18:37:12.494Z,4.06
2022-10-09T18:42:22.256Z,4.06
2022-10-09T18:47:30.738Z,4.12
2022-10-09T18:52:40.495Z,4.12
2022-10-09T18:57:48.984Z,4.06
2022-10-09T19:02:58.095Z,4.06
2022-10-09T19:08:07.889Z,4
2022-10-09T19:13:18.258Z,4
2022-10-09T19:18:27.399Z,4.02
2022-10-09T19:23:35.853Z,4.02
2022-10-09T19:28:45.186Z,4.04
2022-10-09T19:33:55.375Z,4.04
2022-10-09T19:39:04.497Z,4.02
2022-10-09T19:44:14.894Z,4.02
2022-10-09T19:49:24.655Z,4
2022-10-09T19:54:33.777Z,4
2022-10-09T19:59:43.543Z,4.04
2022-10-09T20:04:52.011Z,4.04
2022-10-09T20:10:06.836Z,4.09
2022-10-09T20:15:24.280Z,4.09
2022-10-09T20:20:39.794Z,4.09
2022-10-09T20:25:56.595Z,4.09
2022-10-09T20:31:14.204Z,4.09
2022-10-09T20:36:32.927Z,4.09
2022-10-09T20:41:49.563Z,4.16
2022-10-09T20:47:06.509Z,4.16
2022-10-09T20:52:23.797Z,4.11
2022-10-09T20:56:50.604Z,4.11
2022-10-09T21:01:35.125Z,4.11
2022-10-09T21:06:44.726Z,4.11
2022-10-09T21:11:53.138Z,4.13
2022-10-09T21:17:02.900Z,4.13
2022-10-09T21:22:11.405Z,4.08
2022-10-09T21:27:21.134Z,4.08
2022-10-09T21:32:29.607Z,4.11
2022-10-09T21:37:41.280Z,4.11
2022-10-09T21:42:56.772Z,4.13
2022-10-09T21:48:12.939Z,4.15
2022-10-09T21:53:29.096Z,4.15
2022-10-09T21:58:48.803Z,4.1
2022-10-09T22:04:00.135Z,4.1
2022-10-09T22:09:16.310Z,4.11
2022-10-09T22:14:32.488Z,4.11
2022-10-09T22:19:48.610Z,4.08
2022-10-09T22:25:03.498Z,4.08
2022-10-09T22:30:19.017Z,4.03
2022-10-09T22:34:45.820Z,4.03
2022-10-09T22:39:27.535Z,4.03
2022-10-09T22:44:37.346Z,4.03
2022-10-09T22:49:45.774Z,3.96
2022-10-09T22:54:55.688Z,3.96
2022-10-09T23:00:03.381Z,3.97
2022-10-09T23:05:11.857Z,3.97
2022-10-09T23:10:21.618Z,3.92
2022-10-09T23:15:30.763Z,3.92
2022-10-09T23:20:40.496Z,3.96
2022-10-09T23:25:50.284Z,3.96
2022-10-09T23:30:59.418Z,3.91
2022-10-09T23:36:08.589Z,3.91
2022-10-09T23:41:26.048Z,3.88
2022-10-09T23:46:43.642Z,3.88
2022-10-09T23:51:59.561Z,3.87
2022-10-09T23:57:16.994Z,3.87
